sensor_id;sensor_type;location;lat;lon;timestamp;P1;durP1;ratioP1;P2;durP2;ratioP2
43160;SDS011;40968;52.342;5.528;2023-06-22T00:02:25;19.58;;;6.72;;
43160;SDS011;40968;52.342;5.528;2023-06-22T00:04:52;19.80;;;6.80;;
43160;SDS011;40968;52.342;5.528;2023-06-22T00:07:19;21.80;;;7.32;;
43160;SDS011;40968;52.342;5.528;2023-06-22T00:09:45;15.00;;;6.40;;
43160;SDS011;40968;52.342;5.528;2023-06-22T00:12:12;17.27;;;7.32;;
43160;SDS011;40968;52.342;5.528;2023-06-22T00:14:38;20.70;;;7.57;;
43160;SDS011;40968;52.342;5.528;2023-06-22T00:17:06;17.70;;;6.13;;
43160;SDS011;40968;52.342;5.528;2023-06-22T00:19:33;19.83;;;7.10;;
43160;SDS011;40968;52.342;5.528;2023-06-22T00:22:00;15.00;;;5.95;;
43160;SDS011;40968;52.342;5.528;2023-06-22T00:24:28;19.60;;;6.47;;
43160;SDS011;40968;52.342;5.528;2023-06-22T00:26:55;16.10;;;6.78;;
43160;SDS011;40968;52.342;5.528;2023-06-22T00:29:21;18.10;;;6.80;;
43160;SDS011;40968;52.342;5.528;2023-06-22T00:31:48;20.08;;;6.93;;
43160;SDS011;40968;52.342;5.528;2023-06-22T00:34:16;17.85;;;6.68;;
43160;SDS011;40968;52.342;5.528;2023-06-22T00:36:43;15.50;;;5.75;;
43160;SDS011;40968;52.342;5.528;2023-06-22T00:39:09;14.80;;;6.25;;
43160;SDS011;40968;52.342;5.528;2023-06-22T00:41:36;15.52;;;5.85;;
43160;SDS011;40968;52.342;5.528;2023-06-22T00:44:02;16.70;;;6.85;;
43160;SDS011;40968;52.342;5.528;2023-06-22T00:46:30;23.25;;;7.07;;
43160;SDS011;40968;52.342;5.528;2023-06-22T00:48:57;20.67;;;7.93;;
43160;SDS011;40968;52.342;5.528;2023-06-22T00:51:25;17.48;;;8.10;;
43160;SDS011;40968;52.342;5.528;2023-06-22T00:53:52;23.02;;;9.23;;
43160;SDS011;40968;52.342;5.528;2023-06-22T00:56:18;20.65;;;7.95;;
43160;SDS011;40968;52.342;5.528;2023-06-22T00:58:49;22.45;;;9.48;;
43160;SDS011;40968;52.342;5.528;2023-06-22T01:01:17;20.45;;;8.95;;
43160;SDS011;40968;52.342;5.528;2023-06-22T01:03:48;18.23;;;7.63;;
43160;SDS011;40968;52.342;5.528;2023-06-22T01:06:16;15.48;;;6.88;;
43160;SDS011;40968;52.342;5.528;2023-06-22T01:08:48;20.92;;;9.27;;
43160;SDS011;40968;52.342;5.528;2023-06-22T01:11:20;19.73;;;7.53;;
43160;SDS011;40968;52.342;5.528;2023-06-22T01:13:56;24.35;;;8.20;;
43160;SDS011;40968;52.342;5.528;2023-06-22T01:16:26;22.27;;;9.07;;
43160;SDS011;40968;52.342;5.528;2023-06-22T01:18:59;20.58;;;9.27;;
43160;SDS011;40968;52.342;5.528;2023-06-22T01:21:28;27.17;;;9.35;;
43160;SDS011;40968;52.342;5.528;2023-06-22T01:24:02;22.30;;;8.65;;
43160;SDS011;40968;52.342;5.528;2023-06-22T01:26:42;28.42;;;9.93;;
43160;SDS011;40968;52.342;5.528;2023-06-22T01:29:14;26.63;;;10.85;;
43160;SDS011;40968;52.342;5.528;2023-06-22T01:31:43;26.30;;;10.40;;
43160;SDS011;40968;52.342;5.528;2023-06-22T01:34:11;25.05;;;10.60;;
43160;SDS011;40968;52.342;5.528;2023-06-22T01:36:40;30.88;;;10.85;;
43160;SDS011;40968;52.342;5.528;2023-06-22T01:39:07;26.60;;;8.82;;
43160;SDS011;40968;52.342;5.528;2023-06-22T01:41:36;30.90;;;11.45;;
43160;SDS011;40968;52.342;5.528;2023-06-22T01:44:04;21.63;;;8.63;;
43160;SDS011;40968;52.342;5.528;2023-06-22T01:46:33;25.75;;;11.82;;
43160;SDS011;40968;52.342;5.528;2023-06-22T01:49:01;30.77;;;12.32;;
43160;SDS011;40968;52.342;5.528;2023-06-22T01:51:28;25.90;;;10.48;;
43160;SDS011;40968;52.342;5.528;2023-06-22T01:53:55;30.00;;;13.05;;
43160;SDS011;40968;52.342;5.528;2023-06-22T01:56:21;39.25;;;14.77;;
43160;SDS011;40968;52.342;5.528;2023-06-22T01:58:49;32.05;;;13.85;;
43160;SDS011;40968;52.342;5.528;2023-06-22T02:01:23;34.85;;;12.95;;
43160;SDS011;40968;52.342;5.528;2023-06-22T02:03:57;36.28;;;13.52;;
43160;SDS011;40968;52.342;5.528;2023-06-22T02:06:31;27.75;;;12.00;;
43160;SDS011;40968;52.342;5.528;2023-06-22T02:09:02;30.63;;;12.00;;
43160;SDS011;40968;52.342;5.528;2023-06-22T02:11:34;28.25;;;11.90;;
43160;SDS011;40968;52.342;5.528;2023-06-22T02:14:03;34.45;;;13.65;;
43160;SDS011;40968;52.342;5.528;2023-06-22T02:16:31;36.92;;;14.00;;
43160;SDS011;40968;52.342;5.528;2023-06-22T02:19:00;35.78;;;13.52;;
43160;SDS011;40968;52.342;5.528;2023-06-22T02:21:29;42.78;;;15.48;;
43160;SDS011;40968;52.342;5.528;2023-06-22T02:23:56;39.60;;;14.52;;
43160;SDS011;40968;52.342;5.528;2023-06-22T02:26:22;41.47;;;15.15;;
43160;SDS011;40968;52.342;5.528;2023-06-22T02:28:51;35.92;;;11.50;;
43160;SDS011;40968;52.342;5.528;2023-06-22T02:31:17;33.65;;;13.60;;
43160;SDS011;40968;52.342;5.528;2023-06-22T02:33:45;45.72;;;17.15;;
43160;SDS011;40968;52.342;5.528;2023-06-22T02:36:13;39.60;;;15.23;;
43160;SDS011;40968;52.342;5.528;2023-06-22T02:38:40;37.08;;;14.05;;
43160;SDS011;40968;52.342;5.528;2023-06-22T02:41:13;38.65;;;14.98;;
43160;SDS011;40968;52.342;5.528;2023-06-22T02:43:43;38.25;;;14.02;;
43160;SDS011;40968;52.342;5.528;2023-06-22T02:46:10;27.27;;;11.13;;
43160;SDS011;40968;52.342;5.528;2023-06-22T02:48:38;39.63;;;14.75;;
43160;SDS011;40968;52.342;5.528;2023-06-22T02:51:04;37.80;;;14.73;;
43160;SDS011;40968;52.342;5.528;2023-06-22T02:53:33;38.85;;;15.75;;
43160;SDS011;40968;52.342;5.528;2023-06-22T02:56:00;36.85;;;12.88;;
43160;SDS011;40968;52.342;5.528;2023-06-22T02:58:28;41.92;;;16.27;;
43160;SDS011;40968;52.342;5.528;2023-06-22T03:00:55;37.75;;;17.30;;
43160;SDS011;40968;52.342;5.528;2023-06-22T03:03:21;35.80;;;14.10;;
43160;SDS011;40968;52.342;5.528;2023-06-22T03:05:51;30.67;;;10.90;;
43160;SDS011;40968;52.342;5.528;2023-06-22T03:08:18;30.85;;;12.98;;
43160;SDS011;40968;52.342;5.528;2023-06-22T03:10:46;45.53;;;16.77;;
43160;SDS011;40968;52.342;5.528;2023-06-22T03:13:12;38.33;;;14.80;;
43160;SDS011;40968;52.342;5.528;2023-06-22T03:15:39;54.60;;;20.00;;
43160;SDS011;40968;52.342;5.528;2023-06-22T03:18:06;39.13;;;16.13;;
43160;SDS011;40968;52.342;5.528;2023-06-22T03:20:32;50.55;;;18.60;;
43160;SDS011;40968;52.342;5.528;2023-06-22T03:22:59;46.10;;;17.95;;
43160;SDS011;40968;52.342;5.528;2023-06-22T03:25:26;46.75;;;17.23;;
43160;SDS011;40968;52.342;5.528;2023-06-22T03:27:53;29.92;;;12.68;;
43160;SDS011;40968;52.342;5.528;2023-06-22T03:30:20;40.83;;;14.23;;
43160;SDS011;40968;52.342;5.528;2023-06-22T03:32:47;34.17;;;13.45;;
43160;SDS011;40968;52.342;5.528;2023-06-22T03:35:14;39.15;;;15.10;;
43160;SDS011;40968;52.342;5.528;2023-06-22T03:37:40;41.88;;;18.50;;
43160;SDS011;40968;52.342;5.528;2023-06-22T03:40:07;40.80;;;14.20;;
43160;SDS011;40968;52.342;5.528;2023-06-22T03:42:35;52.28;;;19.20;;
43160;SDS011;40968;52.342;5.528;2023-06-22T03:45:03;50.50;;;17.95;;
43160;SDS011;40968;52.342;5.528;2023-06-22T03:47:31;50.67;;;18.33;;
43160;SDS011;40968;52.342;5.528;2023-06-22T03:49:58;47.20;;;17.73;;
43160;SDS011;40968;52.342;5.528;2023-06-22T03:52:25;43.20;;;18.17;;
43160;SDS011;40968;52.342;5.528;2023-06-22T03:54:52;41.45;;;15.93;;
43160;SDS011;40968;52.342;5.528;2023-06-22T03:57:18;52.80;;;20.90;;
43160;SDS011;40968;52.342;5.528;2023-06-22T03:59:45;51.10;;;19.38;;
43160;SDS011;40968;52.342;5.528;2023-06-22T04:02:13;54.38;;;21.40;;
43160;SDS011;40968;52.342;5.528;2023-06-22T04:04:40;51.95;;;18.80;;
43160;SDS011;40968;52.342;5.528;2023-06-22T04:07:07;46.38;;;18.38;;
43160;SDS011;40968;52.342;5.528;2023-06-22T04:09:33;53.78;;;19.05;;
43160;SDS011;40968;52.342;5.528;2023-06-22T04:12:01;52.67;;;20.73;;
43160;SDS011;40968;52.342;5.528;2023-06-22T04:14:27;56.80;;;19.85;;
43160;SDS011;40968;52.342;5.528;2023-06-22T04:16:54;55.35;;;20.98;;
43160;SDS011;40968;52.342;5.528;2023-06-22T04:19:22;54.28;;;20.73;;
43160;SDS011;40968;52.342;5.528;2023-06-22T04:21:49;45.58;;;18.30;;
43160;SDS011;40968;52.342;5.528;2023-06-22T04:24:15;56.95;;;20.33;;
43160;SDS011;40968;52.342;5.528;2023-06-22T04:26:42;56.72;;;21.73;;
43160;SDS011;40968;52.342;5.528;2023-06-22T04:29:11;46.03;;;18.45;;
43160;SDS011;40968;52.342;5.528;2023-06-22T04:31:38;50.50;;;20.15;;
43160;SDS011;40968;52.342;5.528;2023-06-22T04:34:06;49.35;;;19.13;;
43160;SDS011;40968;52.342;5.528;2023-06-22T04:36:36;58.10;;;20.08;;
43160;SDS011;40968;52.342;5.528;2023-06-22T04:39:04;55.15;;;21.10;;
43160;SDS011;40968;52.342;5.528;2023-06-22T04:41:32;58.47;;;22.45;;
43160;SDS011;40968;52.342;5.528;2023-06-22T04:44:07;53.97;;;21.60;;
43160;SDS011;40968;52.342;5.528;2023-06-22T04:46:35;59.00;;;20.70;;
43160;SDS011;40968;52.342;5.528;2023-06-22T04:49:03;63.30;;;23.13;;
43160;SDS011;40968;52.342;5.528;2023-06-22T04:51:36;54.65;;;21.15;;
43160;SDS011;40968;52.342;5.528;2023-06-22T04:54:04;63.42;;;22.15;;
43160;SDS011;40968;52.342;5.528;2023-06-22T04:56:31;62.40;;;25.08;;
43160;SDS011;40968;52.342;5.528;2023-06-22T04:58:58;60.47;;;22.55;;
43160;SDS011;40968;52.342;5.528;2023-06-22T05:01:25;60.65;;;23.30;;
43160;SDS011;40968;52.342;5.528;2023-06-22T05:03:51;56.28;;;21.23;;
43160;SDS011;40968;52.342;5.528;2023-06-22T05:06:20;68.63;;;26.33;;
43160;SDS011;40968;52.342;5.528;2023-06-22T05:08:50;70.28;;;24.05;;
43160;SDS011;40968;52.342;5.528;2023-06-22T05:11:17;75.82;;;27.67;;
43160;SDS011;40968;52.342;5.528;2023-06-22T05:13:44;68.60;;;24.48;;
43160;SDS011;40968;52.342;5.528;2023-06-22T05:16:10;64.60;;;25.63;;
43160;SDS011;40968;52.342;5.528;2023-06-22T05:18:37;62.28;;;25.10;;
43160;SDS011;40968;52.342;5.528;2023-06-22T05:21:04;70.07;;;24.80;;
43160;SDS011;40968;52.342;5.528;2023-06-22T05:23:30;62.58;;;23.58;;
43160;SDS011;40968;52.342;5.528;2023-06-22T05:25:58;70.82;;;26.10;;
43160;SDS011;40968;52.342;5.528;2023-06-22T05:28:25;74.78;;;25.65;;
43160;SDS011;40968;52.342;5.528;2023-06-22T05:30:52;66.88;;;24.50;;
43160;SDS011;40968;52.342;5.528;2023-06-22T05:33:19;64.95;;;24.35;;
43160;SDS011;40968;52.342;5.528;2023-06-22T05:35:45;86.63;;;27.30;;
43160;SDS011;40968;52.342;5.528;2023-06-22T05:38:13;80.10;;;29.70;;
43160;SDS011;40968;52.342;5.528;2023-06-22T05:40:40;72.00;;;27.50;;
43160;SDS011;40968;52.342;5.528;2023-06-22T05:43:08;69.05;;;25.52;;
43160;SDS011;40968;52.342;5.528;2023-06-22T05:45:34;69.05;;;26.33;;
43160;SDS011;40968;52.342;5.528;2023-06-22T05:48:01;112.95;;;29.17;;
43160;SDS011;40968;52.342;5.528;2023-06-22T05:50:28;79.30;;;29.27;;
43160;SDS011;40968;52.342;5.528;2023-06-22T05:52:54;73.97;;;28.52;;
43160;SDS011;40968;52.342;5.528;2023-06-22T05:55:21;84.80;;;29.75;;
43160;SDS011;40968;52.342;5.528;2023-06-22T05:57:48;79.85;;;29.60;;
43160;SDS011;40968;52.342;5.528;2023-06-22T06:00:16;74.65;;;27.65;;
43160;SDS011;40968;52.342;5.528;2023-06-22T06:02:44;75.88;;;28.88;;
43160;SDS011;40968;52.342;5.528;2023-06-22T06:05:10;91.22;;;31.52;;
43160;SDS011;40968;52.342;5.528;2023-06-22T06:07:39;70.63;;;25.27;;
43160;SDS011;40968;52.342;5.528;2023-06-22T06:10:06;72.28;;;27.83;;
43160;SDS011;40968;52.342;5.528;2023-06-22T06:12:33;64.05;;;24.52;;
43160;SDS011;40968;52.342;5.528;2023-06-22T06:15:00;72.05;;;26.67;;
43160;SDS011;40968;52.342;5.528;2023-06-22T06:17:28;63.00;;;24.92;;
43160;SDS011;40968;52.342;5.528;2023-06-22T06:19:55;76.85;;;27.25;;
43160;SDS011;40968;52.342;5.528;2023-06-22T06:22:21;65.28;;;24.75;;
43160;SDS011;40968;52.342;5.528;2023-06-22T06:24:48;81.55;;;26.65;;
43160;SDS011;40968;52.342;5.528;2023-06-22T06:27:15;74.90;;;26.98;;
43160;SDS011;40968;52.342;5.528;2023-06-22T06:29:44;80.40;;;27.65;;
43160;SDS011;40968;52.342;5.528;2023-06-22T06:32:13;77.90;;;26.88;;
43160;SDS011;40968;52.342;5.528;2023-06-22T06:34:41;67.93;;;25.13;;
43160;SDS011;40968;52.342;5.528;2023-06-22T06:37:08;59.92;;;23.55;;
43160;SDS011;40968;52.342;5.528;2023-06-22T06:39:35;70.32;;;24.48;;
43160;SDS011;40968;52.342;5.528;2023-06-22T06:42:01;65.30;;;23.10;;
43160;SDS011;40968;52.342;5.528;2023-06-22T06:44:28;58.90;;;21.38;;
43160;SDS011;40968;52.342;5.528;2023-06-22T06:46:55;62.17;;;23.30;;
43160;SDS011;40968;52.342;5.528;2023-06-22T06:49:22;54.50;;;21.55;;
43160;SDS011;40968;52.342;5.528;2023-06-22T06:51:50;48.30;;;19.95;;
43160;SDS011;40968;52.342;5.528;2023-06-22T06:54:17;57.10;;;22.88;;
43160;SDS011;40968;52.342;5.528;2023-06-22T06:56:45;55.30;;;22.23;;
43160;SDS011;40968;52.342;5.528;2023-06-22T06:59:13;56.90;;;21.55;;
43160;SDS011;40968;52.342;5.528;2023-06-22T07:01:40;48.33;;;20.10;;
43160;SDS011;40968;52.342;5.528;2023-06-22T07:04:07;45.78;;;20.00;;
43160;SDS011;40968;52.342;5.528;2023-06-22T07:06:33;52.85;;;20.77;;
43160;SDS011;40968;52.342;5.528;2023-06-22T07:09:01;48.78;;;20.55;;
43160;SDS011;40968;52.342;5.528;2023-06-22T07:11:28;54.35;;;20.98;;
43160;SDS011;40968;52.342;5.528;2023-06-22T07:13:55;50.17;;;18.73;;
43160;SDS011;40968;52.342;5.528;2023-06-22T07:16:22;48.83;;;19.48;;
43160;SDS011;40968;52.342;5.528;2023-06-22T07:18:50;51.22;;;19.88;;
43160;SDS011;40968;52.342;5.528;2023-06-22T07:21:17;48.95;;;20.08;;
43160;SDS011;40968;52.342;5.528;2023-06-22T07:23:44;53.05;;;18.52;;
43160;SDS011;40968;52.342;5.528;2023-06-22T07:26:12;47.42;;;18.42;;
43160;SDS011;40968;52.342;5.528;2023-06-22T07:28:38;46.53;;;18.25;;
43160;SDS011;40968;52.342;5.528;2023-06-22T07:31:06;47.58;;;18.85;;
43160;SDS011;40968;52.342;5.528;2023-06-22T07:33:33;49.30;;;19.17;;
43160;SDS011;40968;52.342;5.528;2023-06-22T07:35:59;42.05;;;17.05;;
43160;SDS011;40968;52.342;5.528;2023-06-22T07:38:27;40.47;;;18.13;;
43160;SDS011;40968;52.342;5.528;2023-06-22T07:40:54;46.88;;;17.88;;
43160;SDS011;40968;52.342;5.528;2023-06-22T07:43:22;52.05;;;18.27;;
43160;SDS011;40968;52.342;5.528;2023-06-22T07:45:49;37.05;;;16.17;;
43160;SDS011;40968;52.342;5.528;2023-06-22T07:48:19;42.70;;;16.38;;
43160;SDS011;40968;52.342;5.528;2023-06-22T07:50:47;39.65;;;15.40;;
43160;SDS011;40968;52.342;5.528;2023-06-22T07:53:14;35.25;;;14.50;;
43160;SDS011;40968;52.342;5.528;2023-06-22T07:55:40;35.92;;;14.95;;
43160;SDS011;40968;52.342;5.528;2023-06-22T07:58:07;37.42;;;16.50;;
43160;SDS011;40968;52.342;5.528;2023-06-22T08:00:35;37.35;;;14.45;;
43160;SDS011;40968;52.342;5.528;2023-06-22T08:03:02;35.70;;;14.52;;
43160;SDS011;40968;52.342;5.528;2023-06-22T08:05:30;38.60;;;13.80;;
43160;SDS011;40968;52.342;5.528;2023-06-22T08:07:57;34.28;;;13.80;;
43160;SDS011;40968;52.342;5.528;2023-06-22T08:10:24;35.35;;;14.07;;
43160;SDS011;40968;52.342;5.528;2023-06-22T08:12:51;29.40;;;12.35;;
43160;SDS011;40968;52.342;5.528;2023-06-22T08:15:18;31.77;;;12.57;;
43160;SDS011;40968;52.342;5.528;2023-06-22T08:17:46;31.40;;;12.80;;
43160;SDS011;40968;52.342;5.528;2023-06-22T08:20:12;34.83;;;12.25;;
43160;SDS011;40968;52.342;5.528;2023-06-22T08:22:39;30.85;;;12.25;;
43160;SDS011;40968;52.342;5.528;2023-06-22T08:25:07;44.97;;;13.73;;
43160;SDS011;40968;52.342;5.528;2023-06-22T08:27:35;28.38;;;12.77;;
43160;SDS011;40968;52.342;5.528;2023-06-22T08:30:03;29.35;;;11.65;;
43160;SDS011;40968;52.342;5.528;2023-06-22T08:32:31;28.60;;;11.98;;
43160;SDS011;40968;52.342;5.528;2023-06-22T08:35:00;26.13;;;11.43;;
43160;SDS011;40968;52.342;5.528;2023-06-22T08:37:28;27.98;;;11.18;;
43160;SDS011;40968;52.342;5.528;2023-06-22T08:40:01;31.38;;;11.55;;
43160;SDS011;40968;52.342;5.528;2023-06-22T08:42:31;27.92;;;11.75;;
43160;SDS011;40968;52.342;5.528;2023-06-22T08:44:58;29.08;;;11.73;;
43160;SDS011;40968;52.342;5.528;2023-06-22T08:47:26;24.10;;;11.30;;
43160;SDS011;40968;52.342;5.528;2023-06-22T08:49:54;36.35;;;13.93;;
43160;SDS011;40968;52.342;5.528;2023-06-22T08:52:22;30.95;;;11.52;;
43160;SDS011;40968;52.342;5.528;2023-06-22T08:54:51;29.95;;;12.25;;
43160;SDS011;40968;52.342;5.528;2023-06-22T08:57:19;25.10;;;10.73;;
43160;SDS011;40968;52.342;5.528;2023-06-22T08:59:46;28.83;;;11.50;;
43160;SDS011;40968;52.342;5.528;2023-06-22T09:02:13;23.63;;;9.98;;
43160;SDS011;40968;52.342;5.528;2023-06-22T09:04:40;29.48;;;10.95;;
43160;SDS011;40968;52.342;5.528;2023-06-22T09:07:07;46.58;;;13.93;;
43160;SDS011;40968;52.342;5.528;2023-06-22T09:09:36;27.38;;;11.45;;
43160;SDS011;40968;52.342;5.528;2023-06-22T09:12:04;49.20;;;12.60;;
43160;SDS011;40968;52.342;5.528;2023-06-22T09:14:32;25.88;;;10.65;;
43160;SDS011;40968;52.342;5.528;2023-06-22T09:16:58;22.00;;;9.27;;
43160;SDS011;40968;52.342;5.528;2023-06-22T09:19:25;21.70;;;9.40;;
43160;SDS011;40968;52.342;5.528;2023-06-22T09:21:52;27.45;;;10.00;;
43160;SDS011;40968;52.342;5.528;2023-06-22T09:24:18;22.98;;;9.90;;
43160;SDS011;40968;52.342;5.528;2023-06-22T09:26:46;28.13;;;10.65;;
43160;SDS011;40968;52.342;5.528;2023-06-22T09:29:13;33.75;;;12.02;;
43160;SDS011;40968;52.342;5.528;2023-06-22T09:31:39;26.90;;;9.98;;
43160;SDS011;40968;52.342;5.528;2023-06-22T09:34:06;23.25;;;9.23;;
43160;SDS011;40968;52.342;5.528;2023-06-22T09:36:33;19.92;;;7.97;;
43160;SDS011;40968;52.342;5.528;2023-06-22T09:39:00;28.35;;;10.60;;
43160;SDS011;40968;52.342;5.528;2023-06-22T09:41:31;26.08;;;10.07;;
43160;SDS011;40968;52.342;5.528;2023-06-22T09:43:59;24.85;;;9.60;;
43160;SDS011;40968;52.342;5.528;2023-06-22T09:46:26;23.70;;;9.30;;
43160;SDS011;40968;52.342;5.528;2023-06-22T09:48:53;19.45;;;8.55;;
43160;SDS011;40968;52.342;5.528;2023-06-22T09:51:19;26.15;;;9.90;;
43160;SDS011;40968;52.342;5.528;2023-06-22T09:53:48;25.90;;;10.07;;
43160;SDS011;40968;52.342;5.528;2023-06-22T09:56:15;26.00;;;8.13;;
43160;SDS011;40968;52.342;5.528;2023-06-22T09:58:42;23.98;;;9.40;;
43160;SDS011;40968;52.342;5.528;2023-06-22T10:01:11;33.03;;;10.70;;
43160;SDS011;40968;52.342;5.528;2023-06-22T10:03:39;25.42;;;9.10;;
43160;SDS011;40968;52.342;5.528;2023-06-22T10:06:06;28.60;;;9.43;;
43160;SDS011;40968;52.342;5.528;2023-06-22T10:08:34;22.63;;;8.75;;
43160;SDS011;40968;52.342;5.528;2023-06-22T10:11:01;24.15;;;8.95;;
43160;SDS011;40968;52.342;5.528;2023-06-22T10:13:28;24.05;;;8.80;;
43160;SDS011;40968;52.342;5.528;2023-06-22T10:15:54;22.58;;;8.50;;
43160;SDS011;40968;52.342;5.528;2023-06-22T10:18:22;17.45;;;7.20;;
43160;SDS011;40968;52.342;5.528;2023-06-22T10:20:49;21.83;;;8.35;;
43160;SDS011;40968;52.342;5.528;2023-06-22T10:23:17;26.48;;;10.68;;
43160;SDS011;40968;52.342;5.528;2023-06-22T10:25:44;22.55;;;9.25;;
43160;SDS011;40968;52.342;5.528;2023-06-22T10:28:10;24.60;;;9.60;;
43160;SDS011;40968;52.342;5.528;2023-06-22T10:30:38;21.63;;;8.02;;
43160;SDS011;40968;52.342;5.528;2023-06-22T10:33:06;24.50;;;9.82;;
43160;SDS011;40968;52.342;5.528;2023-06-22T10:35:34;14.95;;;8.43;;
43160;SDS011;40968;52.342;5.528;2023-06-22T10:38:02;23.45;;;9.13;;
43160;SDS011;40968;52.342;5.528;2023-06-22T10:40:30;51.78;;;14.35;;
43160;SDS011;40968;52.342;5.528;2023-06-22T10:42:56;47.05;;;13.90;;
43160;SDS011;40968;52.342;5.528;2023-06-22T10:45:23;21.25;;;9.15;;
43160;SDS011;40968;52.342;5.528;2023-06-22T10:47:50;18.88;;;8.45;;
43160;SDS011;40968;52.342;5.528;2023-06-22T10:50:17;21.15;;;9.25;;
43160;SDS011;40968;52.342;5.528;2023-06-22T10:52:46;21.95;;;8.40;;
43160;SDS011;40968;52.342;5.528;2023-06-22T10:55:13;21.70;;;9.00;;
43160;SDS011;40968;52.342;5.528;2023-06-22T10:57:40;29.02;;;9.48;;
43160;SDS011;40968;52.342;5.528;2023-06-22T11:00:09;26.20;;;9.32;;
43160;SDS011;40968;52.342;5.528;2023-06-22T11:02:37;27.80;;;9.43;;
43160;SDS011;40968;52.342;5.528;2023-06-22T11:05:04;27.20;;;10.32;;
43160;SDS011;40968;52.342;5.528;2023-06-22T11:07:31;24.73;;;10.05;;
43160;SDS011;40968;52.342;5.528;2023-06-22T11:09:59;25.25;;;8.85;;
43160;SDS011;40968;52.342;5.528;2023-06-22T11:12:26;22.50;;;8.73;;
43160;SDS011;40968;52.342;5.528;2023-06-22T11:14:52;15.75;;;7.55;;
43160;SDS011;40968;52.342;5.528;2023-06-22T11:17:19;22.35;;;9.75;;
43160;SDS011;40968;52.342;5.528;2023-06-22T11:19:46;22.80;;;9.15;;
43160;SDS011;40968;52.342;5.528;2023-06-22T11:22:13;22.88;;;8.93;;
43160;SDS011;40968;52.342;5.528;2023-06-22T11:24:39;22.02;;;9.57;;
43160;SDS011;40968;52.342;5.528;2023-06-22T11:27:08;28.15;;;10.05;;
43160;SDS011;40968;52.342;5.528;2023-06-22T11:29:34;19.08;;;9.15;;
43160;SDS011;40968;52.342;5.528;2023-06-22T11:32:02;21.33;;;8.90;;
43160;SDS011;40968;52.342;5.528;2023-06-22T11:34:29;25.75;;;8.23;;
43160;SDS011;40968;52.342;5.528;2023-06-22T11:36:56;44.70;;;11.38;;
43160;SDS011;40968;52.342;5.528;2023-06-22T11:39:22;32.92;;;10.23;;
43160;SDS011;40968;52.342;5.528;2023-06-22T11:41:49;23.88;;;8.80;;
43160;SDS011;40968;52.342;5.528;2023-06-22T11:44:17;22.88;;;8.70;;
43160;SDS011;40968;52.342;5.528;2023-06-22T11:46:44;31.17;;;10.15;;
43160;SDS011;40968;52.342;5.528;2023-06-22T11:49:11;50.30;;;11.52;;
43160;SDS011;40968;52.342;5.528;2023-06-22T11:51:37;22.50;;;7.13;;
43160;SDS011;40968;52.342;5.528;2023-06-22T11:54:04;16.75;;;7.78;;
43160;SDS011;40968;52.342;5.528;2023-06-22T11:56:31;26.50;;;7.57;;
43160;SDS011;40968;52.342;5.528;2023-06-22T11:58:58;24.83;;;6.93;;
43160;SDS011;40968;52.342;5.528;2023-06-22T12:01:27;18.90;;;7.70;;
43160;SDS011;40968;52.342;5.528;2023-06-22T12:03:53;16.33;;;7.95;;
43160;SDS011;40968;52.342;5.528;2023-06-22T12:06:20;18.60;;;7.35;;
43160;SDS011;40968;52.342;5.528;2023-06-22T12:08:47;20.13;;;7.38;;
43160;SDS011;40968;52.342;5.528;2023-06-22T12:11:14;19.15;;;6.95;;
43160;SDS011;40968;52.342;5.528;2023-06-22T12:13:40;14.45;;;6.05;;
43160;SDS011;40968;52.342;5.528;2023-06-22T12:16:07;16.58;;;7.20;;
43160;SDS011;40968;52.342;5.528;2023-06-22T12:18:35;16.80;;;8.30;;
43160;SDS011;40968;52.342;5.528;2023-06-22T12:21:02;21.52;;;8.88;;
43160;SDS011;40968;52.342;5.528;2023-06-22T12:23:28;20.67;;;8.90;;
43160;SDS011;40968;52.342;5.528;2023-06-22T12:25:55;20.30;;;8.45;;
43160;SDS011;40968;52.342;5.528;2023-06-22T12:28:22;19.60;;;7.38;;
43160;SDS011;40968;52.342;5.528;2023-06-22T12:30:49;23.85;;;7.72;;
43160;SDS011;40968;52.342;5.528;2023-06-22T12:33:16;16.08;;;7.43;;
43160;SDS011;40968;52.342;5.528;2023-06-22T12:35:45;23.35;;;6.95;;
43160;SDS011;40968;52.342;5.528;2023-06-22T12:38:14;17.50;;;7.60;;
43160;SDS011;40968;52.342;5.528;2023-06-22T12:40:40;16.92;;;7.22;;
43160;SDS011;40968;52.342;5.528;2023-06-22T12:43:07;17.67;;;7.35;;
43160;SDS011;40968;52.342;5.528;2023-06-22T12:45:34;22.42;;;8.23;;
43160;SDS011;40968;52.342;5.528;2023-06-22T12:48:00;21.48;;;8.30;;
43160;SDS011;40968;52.342;5.528;2023-06-22T12:50:27;16.13;;;6.72;;
43160;SDS011;40968;52.342;5.528;2023-06-22T12:52:55;15.73;;;7.40;;
43160;SDS011;40968;52.342;5.528;2023-06-22T12:55:22;16.10;;;7.70;;
43160;SDS011;40968;52.342;5.528;2023-06-22T12:57:48;20.42;;;7.00;;
43160;SDS011;40968;52.342;5.528;2023-06-22T13:00:15;16.92;;;7.65;;
43160;SDS011;40968;52.342;5.528;2023-06-22T13:02:43;22.10;;;8.25;;
43160;SDS011;40968;52.342;5.528;2023-06-22T13:05:10;20.08;;;7.55;;
43160;SDS011;40968;52.342;5.528;2023-06-22T13:07:36;15.23;;;7.65;;
43160;SDS011;40968;52.342;5.528;2023-06-22T13:10:05;17.17;;;7.68;;
43160;SDS011;40968;52.342;5.528;2023-06-22T13:12:33;16.30;;;7.30;;
43160;SDS011;40968;52.342;5.528;2023-06-22T13:14:59;19.65;;;8.48;;
43160;SDS011;40968;52.342;5.528;2023-06-22T13:17:28;19.25;;;7.80;;
43160;SDS011;40968;52.342;5.528;2023-06-22T13:19:54;23.95;;;8.35;;
43160;SDS011;40968;52.342;5.528;2023-06-22T13:22:25;26.75;;;9.10;;
43160;SDS011;40968;52.342;5.528;2023-06-22T13:24:55;22.52;;;8.40;;
43160;SDS011;40968;52.342;5.528;2023-06-22T13:27:23;22.02;;;8.65;;
43160;SDS011;40968;52.342;5.528;2023-06-22T13:29:50;21.30;;;8.73;;
43160;SDS011;40968;52.342;5.528;2023-06-22T13:32:17;19.85;;;8.90;;
43160;SDS011;40968;52.342;5.528;2023-06-22T13:34:43;25.08;;;9.82;;
43160;SDS011;40968;52.342;5.528;2023-06-22T13:37:10;22.23;;;9.15;;
43160;SDS011;40968;52.342;5.528;2023-06-22T13:39:37;26.92;;;11.82;;
43160;SDS011;40968;52.342;5.528;2023-06-22T13:42:04;27.10;;;11.00;;
43160;SDS011;40968;52.342;5.528;2023-06-22T13:44:33;29.80;;;11.73;;
43160;SDS011;40968;52.342;5.528;2023-06-22T13:46:59;24.98;;;11.00;;
43160;SDS011;40968;52.342;5.528;2023-06-22T13:49:26;28.48;;;11.70;;
43160;SDS011;40968;52.342;5.528;2023-06-22T13:51:53;27.65;;;11.27;;
43160;SDS011;40968;52.342;5.528;2023-06-22T13:54:19;25.95;;;11.02;;
43160;SDS011;40968;52.342;5.528;2023-06-22T13:56:46;23.20;;;11.13;;
43160;SDS011;40968;52.342;5.528;2023-06-22T13:59:13;27.08;;;11.45;;
43160;SDS011;40968;52.342;5.528;2023-06-22T14:01:41;28.20;;;12.35;;
43160;SDS011;40968;52.342;5.528;2023-06-22T14:04:08;28.73;;;12.25;;
43160;SDS011;40968;52.342;5.528;2023-06-22T14:06:35;24.05;;;10.35;;
43160;SDS011;40968;52.342;5.528;2023-06-22T14:09:01;30.92;;;13.13;;
43160;SDS011;40968;52.342;5.528;2023-06-22T14:11:28;23.83;;;11.02;;
43160;SDS011;40968;52.342;5.528;2023-06-22T14:13:55;26.13;;;11.23;;
43160;SDS011;40968;52.342;5.528;2023-06-22T14:16:21;33.15;;;11.45;;
43160;SDS011;40968;52.342;5.528;2023-06-22T14:18:49;31.70;;;13.05;;
43160;SDS011;40968;52.342;5.528;2023-06-22T14:21:16;22.90;;;11.25;;
43160;SDS011;40968;52.342;5.528;2023-06-22T14:23:44;22.23;;;9.88;;
43160;SDS011;40968;52.342;5.528;2023-06-22T14:26:14;25.35;;;10.90;;
43160;SDS011;40968;52.342;5.528;2023-06-22T14:28:42;30.73;;;11.95;;